createdAt,value
2022-08-25T00:00:48.423Z,34.40
2022-08-25T00:01:48.408Z,35.68
2022-08-25T00:02:55.127Z,41.27
2022-08-25T00:03:49.397Z,42.04
2022-08-25T00:04:53.917Z,45.17
2022-08-25T00:05:49.483Z,52.95
2022-08-25T00:06:48.373Z,49.09
2022-08-25T00:07:48.390Z,48.16
2022-08-25T00:08:48.359Z,41.89
2022-08-25T00:09:48.378Z,44.93
2022-08-25T00:11:02.889Z,42.19
2022-08-25T00:11:49.350Z,42.58
2022-08-25T00:12:48.328Z,51.01
2022-08-25T00:13:48.318Z,47.57
2022-08-25T00:14:48.345Z,45.96
2022-08-25T00:15:48.337Z,46.68
2022-08-25T00:16:48.297Z,44.78
2022-08-25T00:17:48.308Z,47.48
2022-08-25T00:18:48.277Z,41.42
2022-08-25T00:19:48.298Z,39.95
2022-08-25T00:20:49.177Z,36.16
2022-08-25T00:21:48.258Z,41.92
2022-08-25T00:22:48.251Z,43.70
2022-08-25T00:23:48.246Z,40.84
2022-08-25T00:24:48.266Z,35.78
2022-08-25T00:25:48.227Z,40.19
2022-08-25T00:26:48.224Z,43.34
2022-08-25T00:27:48.216Z,41.13
2022-08-25T00:28:48.204Z,34.47
2022-08-25T00:29:48.225Z,32.19
2022-08-25T00:30:48.283Z,32.91
2022-08-25T00:31:48.179Z,40.93
2022-08-25T00:32:54.986Z,48.65
2022-08-25T00:33:49.165Z,49.50
2022-08-25T00:34:48.205Z,51.96
2022-08-25T00:35:48.145Z,49.84
2022-08-25T00:36:49.149Z,40.80
2022-08-25T00:37:48.145Z,43.82
2022-08-25T00:38:48.131Z,43.67
2022-08-25T00:39:48.195Z,45.30
2022-08-25T00:40:48.115Z,33.29
2022-08-25T00:41:48.105Z,42.44
2022-08-25T00:42:48.099Z,43.57
2022-08-25T00:43:48.090Z,53.49
2022-08-25T00:44:48.096Z,35.75
2022-08-25T00:45:49.146Z,38.71
2022-08-25T00:46:48.078Z,51.76
2022-08-25T00:47:48.071Z,48.80
2022-08-25T00:48:48.048Z,47.25
2022-08-25T00:49:48.074Z,39.51
2022-08-25T00:50:48.033Z,41.89
2022-08-25T00:51:48.028Z,32.74
2022-08-25T00:52:48.032Z,33.60
2022-08-25T00:53:48.012Z,51.90
2022-08-25T00:54:48.052Z,52.54
2022-08-25T00:55:48.015Z,42.85
2022-08-25T00:56:47.993Z,42.00
2022-08-25T00:57:47.986Z,48.58
2022-08-25T00:58:47.984Z,52.11
2022-08-25T00:59:47.999Z,50.72
2022-08-25T01:00:47.965Z,43.77
2022-08-25T01:01:48.029Z,43.16
2022-08-25T01:02:48.027Z,45.04
2022-08-25T01:03:47.943Z,43.70
2022-08-25T01:04:49.217Z,58.02
2022-08-25T01:05:47.950Z,46.53
2022-08-25T01:06:47.922Z,46.65
2022-08-25T01:07:47.934Z,55.36
2022-08-25T01:08:47.908Z,47.14
2022-08-25T01:09:47.933Z,43.15
2022-08-25T01:10:47.889Z,49.60
2022-08-25T01:11:47.889Z,41.97
2022-08-25T01:12:47.873Z,46.13
2022-08-25T01:13:47.864Z,48.64
2022-08-25T01:14:47.880Z,42.59
2022-08-25T01:15:47.933Z,38.28
2022-08-25T01:16:51.210Z,40.15
2022-08-25T01:17:48.831Z,44.46
2022-08-25T01:18:47.822Z,38.56
2022-08-25T01:19:47.843Z,36.01
2022-08-25T01:20:47.810Z,44.64
2022-08-25T01:21:47.803Z,46.11
2022-08-25T01:22:48.251Z,40.46
2022-08-25T01:23:48.788Z,46.29
2022-08-25T01:24:47.799Z,45.84
2022-08-25T01:25:47.776Z,42.82
2022-08-25T01:26:47.765Z,42.69
2022-08-25T01:27:47.759Z,40.62
2022-08-25T01:28:47.755Z,45.59
2022-08-25T01:29:47.763Z,45.23
2022-08-25T01:30:47.780Z,54.59
2022-08-25T01:31:47.728Z,49.89
2022-08-25T01:32:47.722Z,46.74
2022-08-25T01:33:47.710Z,49.68
2022-08-25T01:34:47.731Z,43.43
2022-08-25T01:35:47.699Z,44.26
2022-08-25T01:36:47.688Z,36.60
2022-08-25T01:37:47.681Z,47.81
2022-08-25T01:38:47.680Z,52.19
2022-08-25T01:39:47.749Z,44.00
2022-08-25T01:40:47.655Z,44.05
2022-08-25T01:41:47.647Z,41.51
2022-08-25T01:42:47.643Z,39.79
2022-08-25T01:43:47.634Z,43.18
2022-08-25T01:44:47.649Z,45.65
2022-08-25T01:45:47.731Z,47.10
2022-08-25T01:46:47.609Z,39.17
2022-08-25T01:47:47.601Z,35.67
2022-08-25T01:48:47.605Z,46.82
2022-08-25T01:49:47.612Z,45.45
2022-08-25T01:50:47.579Z,43.60
2022-08-25T01:51:47.570Z,46.94
2022-08-25T01:53:20.017Z,45.23
2022-08-25T01:53:47.549Z,45.71
2022-08-25T01:54:47.575Z,49.47
2022-08-25T01:55:47.547Z,45.73
2022-08-25T01:56:47.539Z,34.45
2022-08-25T01:57:47.526Z,40.15
2022-08-25T01:58:47.520Z,50.39
2022-08-25T01:59:47.552Z,44.56
2022-08-25T02:00:47.505Z,38.89
2022-08-25T02:01:47.551Z,39.74
2022-08-25T02:02:52.309Z,48.84
2022-08-25T02:03:48.492Z,42.87
2022-08-25T02:04:47.504Z,47.02
2022-08-25T02:05:48.051Z,51.63
2022-08-25T02:06:47.457Z,43.63
2022-08-25T02:07:47.453Z,41.26
2022-08-25T02:08:47.443Z,46.69
2022-08-25T02:09:47.462Z,56.39
2022-08-25T02:10:47.434Z,51.75
2022-08-25T02:11:47.421Z,54.39
2022-08-25T02:12:47.417Z,47.22
2022-08-25T02:13:47.410Z,40.72
2022-08-25T02:14:47.427Z,43.81
2022-08-25T02:15:47.392Z,44.86
2022-08-25T02:16:47.568Z,51.15
2022-08-25T02:17:47.380Z,48.50
2022-08-25T02:18:47.372Z,37.04
2022-08-25T02:19:47.391Z,35.64
2022-08-25T02:20:47.354Z,39.05
2022-08-25T02:21:47.353Z,38.41
2022-08-25T02:22:51.131Z,39.98
2022-08-25T02:23:48.332Z,48.86
2022-08-25T02:24:47.348Z,50.81
2022-08-25T02:25:47.319Z,47.83
2022-08-25T02:26:47.317Z,46.87
2022-08-25T02:27:47.301Z,43.07
2022-08-25T02:28:47.293Z,54.10
2022-08-25T02:29:47.322Z,52.11
2022-08-25T02:30:47.326Z,45.17
2022-08-25T02:31:47.288Z,47.68
2022-08-25T02:32:47.265Z,45.71
2022-08-25T02:33:47.259Z,53.26
2022-08-25T02:34:47.272Z,47.59
2022-08-25T02:35:47.247Z,46.61
2022-08-25T02:36:47.233Z,51.40
2022-08-25T02:37:47.229Z,56.34
2022-08-25T02:38:47.219Z,51.88
2022-08-25T02:39:47.287Z,48.87
2022-08-25T02:40:47.206Z,38.98
2022-08-25T02:41:47.201Z,48.20
2022-08-25T02:42:47.189Z,45.55
2022-08-25T02:43:47.183Z,47.45
2022-08-25T02:44:47.173Z,40.81
2022-08-25T02:45:47.227Z,43.53
2022-08-25T02:46:47.162Z,45.79
2022-08-25T02:47:47.150Z,40.64
2022-08-25T02:48:47.146Z,46.93
2022-08-25T02:49:47.142Z,47.85
2022-08-25T02:50:47.157Z,52.16
2022-08-25T02:51:47.120Z,54.12
2022-08-25T02:52:47.114Z,50.56
2022-08-25T02:53:47.107Z,45.21
2022-08-25T02:54:47.099Z,48.47
2022-08-25T02:55:47.118Z,55.19
2022-08-25T02:56:47.083Z,46.56
2022-08-25T02:57:47.079Z,47.55
2022-08-25T02:58:47.064Z,50.99
2022-08-25T02:59:47.062Z,56.71
2022-08-25T03:00:47.104Z,52.63
2022-08-25T03:01:47.049Z,51.29
2022-08-25T03:02:47.033Z,48.31
2022-08-25T03:03:47.078Z,49.28
2022-08-25T03:04:47.070Z,53.91
2022-08-25T03:05:47.043Z,50.03
2022-08-25T03:06:47.010Z,53.24
2022-08-25T03:07:46.995Z,51.14
2022-08-25T03:08:46.997Z,51.68
2022-08-25T03:09:46.979Z,48.97
2022-08-25T03:10:47.414Z,55.40
2022-08-25T03:11:46.973Z,51.98
2022-08-25T03:12:46.954Z,53.85
2022-08-25T03:13:46.954Z,47.94
2022-08-25T03:14:46.976Z,50.23
2022-08-25T03:15:46.959Z,50.52
2022-08-25T03:16:47.114Z,55.10
2022-08-25T03:17:46.911Z,54.40
2022-08-25T03:18:46.911Z,51.17
2022-08-25T03:19:46.909Z,50.47
2022-08-25T03:20:46.921Z,51.80
2022-08-25T03:21:46.887Z,46.84
2022-08-25T03:22:46.875Z,52.50
2022-08-25T03:23:46.868Z,53.18
2022-08-25T03:24:46.862Z,48.24
2022-08-25T03:25:46.938Z,55.12
2022-08-25T03:26:46.920Z,53.04
2022-08-25T03:27:46.842Z,53.31
2022-08-25T03:28:46.845Z,48.59
2022-08-25T03:29:46.828Z,52.76
2022-08-25T03:30:46.850Z,51.54
2022-08-25T03:31:47.849Z,53.13
2022-08-25T03:32:46.806Z,53.43
2022-08-25T03:33:46.800Z,46.82
2022-08-25T03:34:46.792Z,56.89
2022-08-25T03:35:46.809Z,50.65
2022-08-25T03:36:46.788Z,50.05
2022-08-25T03:37:46.770Z,56.38
2022-08-25T03:38:46.762Z,58.44
2022-08-25T03:39:46.832Z,49.34
2022-08-25T03:40:46.782Z,52.91
2022-08-25T03:41:46.741Z,54.18
2022-08-25T03:42:46.743Z,59.56
2022-08-25T03:43:48.283Z,53.03
2022-08-25T03:44:46.725Z,52.78
2022-08-25T03:45:46.771Z,51.90
2022-08-25T03:46:46.702Z,52.44
2022-08-25T03:47:46.693Z,53.06
2022-08-25T03:48:46.681Z,54.43
2022-08-25T03:49:46.676Z,60.54
2022-08-25T03:50:50.560Z,55.25
2022-08-25T03:51:46.665Z,56.48
2022-08-25T03:52:46.654Z,50.53
2022-08-25T03:53:46.649Z,54.62
2022-08-25T03:54:46.637Z,55.17
2022-08-25T03:55:46.666Z,53.26
2022-08-25T03:56:46.628Z,51.29
2022-08-25T03:57:46.621Z,54.36
2022-08-25T03:58:46.608Z,46.91
2022-08-25T03:59:46.603Z,55.49
2022-08-25T04:00:46.661Z,51.09
2022-08-25T04:01:48.430Z,51.29
2022-08-25T04:02:46.637Z,51.87
2022-08-25T04:03:46.568Z,59.19
2022-08-25T04:04:46.564Z,50.91
2022-08-25T04:05:46.582Z,55.11
2022-08-25T04:06:46.547Z,51.81
2022-08-25T04:07:46.541Z,52.63
2022-08-25T04:08:46.551Z,54.16
2022-08-25T04:09:46.526Z,53.34
2022-08-25T04:10:46.525Z,53.71
2022-08-25T04:11:46.535Z,51.79
2022-08-25T04:12:46.508Z,52.11
2022-08-25T04:13:46.497Z,51.85
2022-08-25T04:14:46.490Z,53.79
2022-08-25T04:15:46.514Z,54.78
2022-08-25T04:16:46.533Z,57.11
2022-08-25T04:17:46.469Z,57.00
2022-08-25T04:18:46.474Z,56.21
2022-08-25T04:19:46.452Z,54.03
2022-08-25T04:20:46.959Z,51.28
2022-08-25T04:21:47.460Z,56.22
2022-08-25T04:22:46.432Z,56.06
2022-08-25T04:23:46.433Z,54.04
2022-08-25T04:24:46.418Z,57.54
2022-08-25T04:25:46.407Z,54.09
2022-08-25T04:26:46.416Z,52.44
2022-08-25T04:27:46.389Z,55.44
2022-08-25T04:28:46.380Z,56.16
2022-08-25T04:29:46.373Z,58.94
2022-08-25T04:30:50.238Z,52.59
2022-08-25T04:31:48.810Z,54.76
2022-08-25T04:32:46.347Z,54.74
2022-08-25T04:33:46.346Z,54.87
2022-08-25T04:34:46.335Z,55.93
2022-08-25T04:35:46.321Z,51.72
2022-08-25T04:36:46.341Z,56.12
2022-08-25T04:37:47.313Z,56.69
2022-08-25T04:38:46.300Z,59.07
2022-08-25T04:39:46.349Z,54.79
2022-08-25T04:40:46.293Z,54.69
2022-08-25T04:41:46.306Z,57.14
2022-08-25T04:42:48.077Z,54.27
2022-08-25T04:43:46.273Z,53.63
2022-08-25T04:44:46.255Z,56.81
2022-08-25T04:45:46.288Z,56.63
2022-08-25T04:46:46.266Z,56.14
2022-08-25T04:47:46.226Z,55.88
2022-08-25T04:48:46.217Z,55.52
2022-08-25T04:49:46.215Z,57.04
2022-08-25T04:50:46.202Z,53.98
2022-08-25T04:51:46.225Z,55.44
2022-08-25T04:52:46.189Z,56.64
2022-08-25T04:53:46.179Z,54.71
2022-08-25T04:54:46.188Z,54.85
2022-08-25T04:55:46.166Z,54.69
2022-08-25T04:56:46.194Z,54.32
2022-08-25T04:57:46.148Z,53.18
2022-08-25T04:58:46.139Z,53.28
2022-08-25T04:59:46.135Z,51.63
2022-08-25T05:00:46.155Z,53.36
2022-08-25T05:01:46.144Z,55.96
2022-08-25T05:02:46.113Z,54.12
2022-08-25T05:03:46.123Z,54.28
2022-08-25T05:04:46.136Z,53.53
2022-08-25T05:05:46.090Z,56.70
2022-08-25T05:06:46.107Z,57.55
2022-08-25T05:07:46.075Z,56.91
2022-08-25T05:08:46.274Z,57.23
2022-08-25T05:09:46.053Z,55.98
2022-08-25T05:10:46.050Z,56.60
2022-08-25T05:11:46.078Z,56.81
2022-08-25T05:12:46.038Z,53.32
2022-08-25T05:13:51.157Z,53.56
2022-08-25T05:14:47.019Z,55.12
2022-08-25T05:15:46.013Z,54.94
2022-08-25T05:16:46.072Z,51.94
2022-08-25T05:17:46.006Z,49.86
2022-08-25T05:18:45.992Z,55.10
2022-08-25T05:19:45.984Z,56.24
2022-08-25T05:20:45.981Z,53.93
2022-08-25T05:21:45.996Z,57.32
2022-08-25T05:22:45.958Z,54.99
2022-08-25T05:23:45.951Z,55.13
2022-08-25T05:24:45.941Z,53.03
2022-08-25T05:25:45.937Z,54.27
2022-08-25T05:26:45.973Z,54.74
2022-08-25T05:27:45.920Z,55.57
2022-08-25T05:28:45.914Z,58.71
2022-08-25T05:29:45.905Z,56.02
2022-08-25T05:30:45.891Z,55.98
2022-08-25T05:31:50.281Z,56.19
2022-08-25T05:32:46.893Z,52.53
2022-08-25T05:33:45.894Z,54.47
2022-08-25T05:34:45.868Z,59.61
2022-08-25T05:35:45.866Z,53.91
2022-08-25T05:36:45.862Z,55.48
2022-08-25T05:37:45.869Z,56.95
2022-08-25T05:38:45.834Z,56.28
2022-08-25T05:39:45.859Z,54.48
2022-08-25T05:40:45.821Z,55.99
2022-08-25T05:41:45.810Z,57.36
2022-08-25T05:42:45.833Z,55.91
2022-08-25T05:43:45.793Z,54.22
2022-08-25T05:44:45.796Z,55.82
2022-08-25T05:45:45.796Z,55.57
2022-08-25T05:46:45.774Z,55.55
2022-08-25T05:47:45.796Z,55.61
2022-08-25T05:48:45.754Z,55.94
2022-08-25T05:49:45.748Z,53.65
2022-08-25T05:50:45.741Z,58.31
2022-08-25T05:51:45.733Z,55.36
2022-08-25T05:52:45.748Z,54.92
2022-08-25T05:53:45.714Z,55.44
2022-08-25T05:54:45.733Z,54.78
2022-08-25T05:55:45.709Z,54.94
2022-08-25T05:56:45.692Z,54.74
2022-08-25T05:57:45.718Z,55.93
2022-08-25T05:58:45.680Z,56.45
2022-08-25T05:59:45.670Z,53.20
2022-08-25T06:00:45.692Z,58.81
2022-08-25T06:01:45.650Z,53.86
2022-08-25T06:02:45.671Z,56.41
2022-08-25T06:03:45.648Z,52.98
2022-08-25T06:04:45.629Z,55.31
2022-08-25T06:05:45.624Z,52.83
2022-08-25T06:06:45.613Z,59.07
2022-08-25T06:07:45.631Z,52.19
2022-08-25T06:08:45.599Z,52.51
2022-08-25T06:09:45.599Z,53.58
2022-08-25T06:10:45.588Z,53.33
2022-08-25T06:11:45.585Z,55.98
2022-08-25T06:12:45.593Z,54.84
2022-08-25T06:13:45.567Z,55.97
2022-08-25T06:14:45.563Z,54.38
2022-08-25T06:15:45.546Z,52.21
2022-08-25T06:16:45.571Z,56.50
2022-08-25T06:17:45.561Z,54.53
2022-08-25T06:18:45.524Z,55.38
2022-08-25T06:19:45.517Z,56.51
2022-08-25T06:20:45.513Z,54.97
2022-08-25T06:21:45.506Z,56.72
2022-08-25T06:22:45.505Z,51.87
2022-08-25T06:23:46.484Z,52.46
2022-08-25T06:24:45.474Z,54.96
2022-08-25T06:25:45.469Z,55.41
2022-08-25T06:26:45.468Z,56.38
2022-08-25T06:27:45.480Z,55.53
2022-08-25T06:28:45.447Z,56.97
2022-08-25T06:29:45.441Z,57.42
2022-08-25T06:30:45.433Z,53.56
2022-08-25T06:31:45.467Z,53.42
2022-08-25T06:32:45.443Z,57.68
2022-08-25T06:33:45.408Z,55.44
2022-08-25T06:34:45.403Z,52.42
2022-08-25T06:35:45.400Z,50.33
2022-08-25T06:36:45.394Z,52.13
2022-08-25T06:37:45.411Z,53.08
2022-08-25T06:38:45.380Z,55.16
2022-08-25T06:39:45.408Z,54.55
2022-08-25T06:40:45.359Z,51.02
2022-08-25T06:41:45.351Z,53.10
2022-08-25T06:42:45.367Z,54.29
2022-08-25T06:43:49.812Z,55.90
2022-08-25T06:44:47.329Z,51.86
2022-08-25T06:45:45.321Z,54.39
2022-08-25T06:46:45.361Z,53.18
2022-08-25T06:47:45.586Z,54.65
2022-08-25T06:48:45.303Z,52.67
2022-08-25T06:49:45.289Z,52.45
2022-08-25T06:50:45.280Z,53.82
2022-08-25T06:51:45.275Z,54.05
2022-08-25T06:52:45.293Z,52.66
2022-08-25T06:53:45.264Z,59.03
2022-08-25T06:54:45.250Z,49.17
2022-08-25T06:55:45.247Z,58.91
2022-08-25T06:56:45.245Z,56.66
2022-08-25T06:57:45.255Z,48.84
2022-08-25T06:58:45.220Z,52.51
2022-08-25T06:59:45.213Z,53.67
2022-08-25T07:00:45.247Z,51.59
2022-08-25T07:01:45.291Z,53.28
2022-08-25T07:02:45.224Z,55.03
2022-08-25T07:03:45.190Z,53.76
2022-08-25T07:04:45.181Z,54.26
2022-08-25T07:05:45.206Z,46.42
2022-08-25T07:06:45.160Z,53.00
2022-08-25T07:07:45.184Z,55.08
2022-08-25T07:08:45.147Z,54.92
2022-08-25T07:09:45.136Z,53.46
2022-08-25T07:10:48.148Z,54.23
2022-08-25T07:11:45.127Z,54.91
2022-08-25T07:12:45.147Z,56.52
2022-08-25T07:13:45.108Z,55.22
2022-08-25T07:14:58.040Z,57.13
2022-08-25T07:15:47.098Z,54.63
2022-08-25T07:16:49.306Z,54.49
2022-08-25T07:17:47.103Z,59.45
2022-08-25T07:18:45.071Z,54.86
2022-08-25T07:19:45.049Z,53.13
2022-08-25T07:20:46.080Z,54.88
2022-08-25T07:21:45.044Z,50.72
2022-08-25T07:22:45.059Z,53.80
2022-08-25T07:23:45.031Z,54.79
2022-08-25T07:24:45.029Z,52.98
2022-08-25T07:25:45.016Z,53.79
2022-08-25T07:26:45.005Z,54.99
2022-08-25T07:27:45.029Z,56.92
2022-08-25T07:28:47.135Z,51.26
2022-08-25T07:29:44.988Z,52.98
2022-08-25T07:30:44.977Z,58.83
2022-08-25T07:31:46.150Z,54.38
2022-08-25T07:32:45.000Z,59.86
2022-08-25T07:33:44.953Z,53.50
2022-08-25T07:34:44.949Z,52.08
2022-08-25T07:35:45.938Z,60.57
2022-08-25T07:36:44.929Z,55.61
2022-08-25T07:37:49.145Z,54.98
2022-08-25T07:38:45.917Z,50.13
2022-08-25T07:39:44.956Z,53.52
2022-08-25T07:40:44.899Z,52.18
2022-08-25T07:41:45.883Z,54.64
2022-08-25T07:42:45.913Z,52.79
2022-08-25T07:43:44.877Z,55.81
2022-08-25T07:44:44.888Z,55.73
2022-08-25T07:45:49.479Z,54.20
2022-08-25T07:46:44.899Z,59.28
2022-08-25T07:47:44.876Z,56.04
2022-08-25T07:48:44.989Z,53.69
2022-08-25T07:49:45.833Z,57.27
2022-08-25T07:50:44.825Z,55.23
2022-08-25T07:52:04.463Z,54.64
2022-08-25T07:52:45.843Z,58.13
2022-08-25T07:54:17.686Z,53.22
2022-08-25T07:54:44.802Z,54.84
2022-08-25T07:55:45.118Z,59.55
2022-08-25T07:56:44.779Z,56.31
2022-08-25T07:57:44.774Z,57.48
2022-08-25T07:58:44.826Z,56.99
2022-08-25T07:59:44.799Z,54.29
2022-08-25T08:00:44.754Z,54.34
2022-08-25T08:01:44.847Z,56.82
2022-08-25T08:02:44.757Z,55.50
2022-08-25T08:03:50.541Z,54.36
2022-08-25T08:04:46.720Z,52.88
2022-08-25T08:05:44.710Z,56.10
2022-08-25T08:06:45.730Z,54.29
2022-08-25T08:07:44.701Z,52.92
2022-08-25T08:08:44.765Z,51.19
2022-08-25T08:09:44.679Z,61.29
2022-08-25T08:11:05.550Z,56.13
2022-08-25T08:11:53.672Z,56.94
2022-08-25T08:12:46.687Z,53.71
2022-08-25T08:13:44.664Z,53.74
2022-08-25T08:14:44.999Z,54.54
2022-08-25T08:15:44.670Z,51.40
2022-08-25T08:16:44.631Z,57.25
2022-08-25T08:17:44.646Z,57.95
2022-08-25T08:18:44.618Z,59.89
2022-08-25T08:19:45.342Z,57.07
2022-08-25T08:20:45.598Z,58.04
2022-08-25T08:21:44.608Z,53.63
2022-08-25T08:22:44.617Z,52.44
2022-08-25T08:23:44.597Z,54.71
2022-08-25T08:24:55.976Z,56.60
2022-08-25T08:25:45.564Z,51.30
2022-08-25T08:26:58.159Z,53.24
2022-08-25T08:27:46.579Z,50.21
2022-08-25T08:28:44.543Z,55.45
2022-08-25T08:29:45.545Z,59.67
2022-08-25T08:30:53.051Z,54.83
2022-08-25T08:31:48.671Z,54.52
2022-08-25T08:33:08.861Z,54.12
2022-08-25T08:33:46.517Z,55.20
2022-08-25T08:34:44.500Z,52.91
2022-08-25T08:35:44.494Z,53.26
2022-08-25T08:36:45.307Z,51.89
2022-08-25T08:37:44.528Z,52.77
2022-08-25T08:38:44.463Z,56.43
2022-08-25T08:39:44.465Z,51.87
2022-08-25T08:40:44.448Z,49.96
2022-08-25T08:42:12.123Z,55.95
2022-08-25T08:42:46.911Z,54.92
2022-08-25T08:43:44.440Z,52.06
2022-08-25T08:44:45.437Z,55.92
2022-08-25T08:45:44.414Z,53.83
2022-08-25T08:46:44.456Z,54.41
2022-08-25T08:47:44.449Z,55.04
2022-08-25T08:48:44.417Z,55.83
2022-08-25T08:49:44.391Z,59.05
2022-08-25T08:50:44.402Z,56.38
2022-08-25T08:51:44.377Z,51.53
2022-08-25T08:52:44.389Z,52.73
2022-08-25T08:53:44.363Z,51.01
2022-08-25T08:54:44.349Z,50.02
2022-08-25T08:55:44.350Z,51.63
2022-08-25T08:56:48.245Z,51.61
2022-08-25T08:57:44.384Z,56.00
2022-08-25T08:58:44.344Z,57.01
2022-08-25T08:59:44.320Z,53.16
2022-08-25T09:00:51.896Z,53.86
2022-08-25T09:01:45.327Z,57.08
2022-08-25T09:02:51.476Z,52.42
2022-08-25T09:03:45.295Z,54.10
2022-08-25T09:04:45.278Z,52.84
2022-08-25T09:05:46.792Z,55.09
2022-08-25T09:06:45.277Z,51.31
2022-08-25T09:07:44.285Z,51.27
2022-08-25T09:08:44.506Z,52.73
2022-08-25T09:09:44.246Z,50.89
2022-08-25T09:10:44.242Z,56.35
2022-08-25T09:11:44.231Z,55.15
2022-08-25T09:12:48.172Z,53.28
2022-08-25T09:13:44.226Z,55.58
2022-08-25T09:14:44.209Z,60.06
2022-08-25T09:15:44.216Z,51.87
2022-08-25T09:16:44.264Z,56.63
2022-08-25T09:17:44.234Z,58.76
2022-08-25T09:18:51.504Z,53.39
2022-08-25T09:19:45.172Z,53.87
2022-08-25T09:20:44.158Z,51.44
2022-08-25T09:21:44.148Z,51.17
2022-08-25T09:22:44.165Z,55.64
2022-08-25T09:23:44.137Z,52.23
2022-08-25T09:24:44.125Z,53.66
2022-08-25T09:25:53.245Z,55.21
2022-08-25T09:26:46.130Z,49.40
2022-08-25T09:27:44.130Z,52.52
2022-08-25T09:28:44.104Z,52.35
2022-08-25T09:29:44.093Z,51.99
2022-08-25T09:30:44.155Z,50.31
2022-08-25T09:31:44.128Z,51.26
2022-08-25T09:32:49.062Z,57.52
2022-08-25T09:33:45.081Z,54.48
2022-08-25T09:34:44.062Z,54.90
2022-08-25T09:35:44.044Z,51.42
2022-08-25T09:36:44.039Z,55.09
2022-08-25T09:37:44.056Z,51.41
2022-08-25T09:38:44.030Z,56.57
2022-08-25T09:39:44.020Z,52.66
2022-08-25T09:40:44.049Z,54.53
2022-08-25T09:41:44.011Z,55.11
2022-08-25T09:42:44.027Z,55.25
2022-08-25T09:43:43.992Z,51.76
2022-08-25T09:44:43.984Z,52.93
2022-08-25T09:45:43.979Z,52.11
2022-08-25T09:46:44.049Z,56.86
2022-08-25T09:47:44.019Z,50.53
2022-08-25T09:48:43.982Z,56.14
2022-08-25T09:49:43.949Z,55.93
2022-08-25T09:50:46.746Z,53.50
2022-08-25T09:51:44.932Z,52.16
2022-08-25T09:52:43.950Z,54.60
2022-08-25T09:53:43.913Z,49.83
2022-08-25T09:54:46.995Z,50.51
2022-08-25T09:55:45.760Z,58.57
2022-08-25T09:56:43.893Z,56.16
2022-08-25T09:57:43.932Z,52.66
2022-08-25T09:58:43.903Z,56.95
2022-08-25T09:59:55.667Z,56.27
2022-08-25T10:00:44.869Z,56.69
2022-08-25T10:01:43.869Z,58.84
2022-08-25T10:02:43.867Z,52.53
2022-08-25T10:03:43.839Z,54.80
2022-08-25T10:04:43.868Z,55.77
2022-08-25T10:05:43.838Z,54.98
2022-08-25T10:06:43.817Z,58.69
2022-08-25T10:07:43.865Z,52.59
2022-08-25T10:08:44.825Z,53.60
2022-08-25T10:09:43.789Z,56.00
2022-08-25T10:10:43.780Z,51.97
2022-08-25T10:11:43.777Z,53.69
2022-08-25T10:12:43.808Z,55.73
2022-08-25T10:13:43.763Z,58.44
2022-08-25T10:14:44.315Z,55.59
2022-08-25T10:15:43.776Z,55.86
2022-08-25T10:16:43.748Z,59.23
2022-08-25T10:17:43.738Z,53.98
2022-08-25T10:18:43.761Z,54.48
2022-08-25T10:19:43.718Z,49.38
2022-08-25T10:20:44.559Z,56.07
2022-08-25T10:21:43.741Z,57.97
2022-08-25T10:22:43.693Z,52.67
2022-08-25T10:23:43.750Z,56.90
2022-08-25T10:24:43.857Z,51.32
2022-08-25T10:25:43.675Z,52.71
2022-08-25T10:26:44.670Z,52.19
2022-08-25T10:27:43.678Z,52.94
2022-08-25T10:28:43.682Z,54.71
2022-08-25T10:29:43.646Z,52.90
2022-08-25T10:30:43.684Z,54.06
2022-08-25T10:31:43.631Z,54.47
2022-08-25T10:32:43.626Z,56.18
2022-08-25T10:33:43.643Z,60.53
2022-08-25T10:34:44.314Z,55.45
2022-08-25T10:35:43.609Z,54.90
2022-08-25T10:36:47.141Z,56.38
2022-08-25T10:37:43.591Z,53.04
2022-08-25T10:38:43.601Z,53.15
2022-08-25T10:39:43.580Z,59.34
2022-08-25T10:40:43.626Z,55.38
2022-08-25T10:41:43.558Z,52.88
2022-08-25T10:42:43.562Z,57.78
2022-08-25T10:43:43.571Z,56.07
2022-08-25T10:44:43.535Z,56.28
2022-08-25T10:45:43.722Z,52.19
2022-08-25T10:46:43.556Z,58.27
2022-08-25T10:47:43.512Z,54.40
2022-08-25T10:48:43.545Z,56.08
2022-08-25T10:49:43.504Z,54.90
2022-08-25T10:50:45.318Z,56.22
2022-08-25T10:51:43.487Z,59.29
2022-08-25T10:52:43.477Z,55.43
2022-08-25T10:53:43.495Z,54.72
2022-08-25T10:54:43.461Z,55.79
2022-08-25T10:55:43.453Z,54.45
2022-08-25T10:56:43.441Z,58.68
2022-08-25T10:57:43.445Z,56.58
2022-08-25T10:58:43.463Z,51.80
2022-08-25T10:59:43.419Z,51.39
2022-08-25T11:00:47.047Z,55.01
2022-08-25T11:01:44.586Z,52.10
2022-08-25T11:02:44.407Z,54.30
2022-08-25T11:03:43.421Z,60.07
2022-08-25T11:04:43.406Z,52.83
2022-08-25T11:05:43.462Z,56.31
2022-08-25T11:06:43.366Z,50.79
2022-08-25T11:07:43.363Z,54.03
2022-08-25T11:08:43.398Z,51.20
2022-08-25T11:09:43.369Z,55.89
2022-08-25T11:10:43.343Z,51.31
2022-08-25T11:11:43.333Z,51.24
2022-08-25T11:12:43.318Z,56.53
2022-08-25T11:13:43.355Z,55.84
2022-08-25T11:14:43.307Z,53.60
2022-08-25T11:15:54.801Z,50.68
2022-08-25T11:16:45.397Z,52.25
2022-08-25T11:17:43.291Z,57.22
2022-08-25T11:18:43.313Z,52.43
2022-08-25T11:19:44.010Z,54.04
2022-08-25T11:20:43.273Z,54.02
2022-08-25T11:21:43.252Z,53.78
2022-08-25T11:22:43.242Z,55.91
2022-08-25T11:23:43.272Z,55.52
2022-08-25T11:24:43.300Z,54.37
2022-08-25T11:25:43.230Z,58.78
2022-08-25T11:26:43.220Z,54.79
2022-08-25T11:27:43.211Z,57.03
2022-08-25T11:28:43.242Z,60.78
2022-08-25T11:29:43.193Z,58.17
2022-08-25T11:30:43.237Z,54.82
2022-08-25T11:31:43.183Z,50.79
2022-08-25T11:32:43.168Z,61.37
2022-08-25T11:33:43.199Z,56.96
2022-08-25T11:34:43.798Z,57.26
2022-08-25T11:35:43.157Z,55.14
2022-08-25T11:36:43.152Z,54.71
2022-08-25T11:37:43.139Z,55.68
2022-08-25T11:38:43.163Z,55.08
2022-08-25T11:39:43.120Z,54.64
2022-08-25T11:40:43.108Z,55.44
2022-08-25T11:41:43.116Z,55.29
2022-08-25T11:42:43.100Z,59.66
2022-08-25T11:43:43.123Z,52.74
2022-08-25T11:44:51.800Z,55.27
2022-08-25T11:45:44.089Z,56.53
2022-08-25T11:46:43.109Z,57.25
2022-08-25T11:47:43.064Z,55.30
2022-08-25T11:48:43.105Z,56.48
2022-08-25T11:49:43.068Z,54.17
2022-08-25T11:50:44.041Z,57.52
2022-08-25T11:51:43.036Z,53.28
2022-08-25T11:52:43.028Z,52.87
2022-08-25T11:53:43.034Z,52.54
2022-08-25T11:54:43.043Z,54.25
2022-08-25T11:55:43.006Z,53.89
2022-08-25T11:56:42.999Z,50.36
2022-08-25T11:57:42.999Z,54.78
2022-08-25T11:58:42.995Z,56.95
2022-08-25T11:59:43.015Z,56.02
2022-08-25T12:00:42.989Z,53.49
2022-08-25T12:01:42.962Z,54.97
2022-08-25T12:02:42.998Z,54.75
2022-08-25T12:03:42.950Z,54.91
2022-08-25T12:04:44.722Z,52.89
2022-08-25T12:05:42.976Z,53.67
2022-08-25T12:06:42.940Z,52.59
2022-08-25T12:07:42.917Z,54.54
2022-08-25T12:08:42.910Z,48.84
2022-08-25T12:09:42.955Z,50.65
2022-08-25T12:10:42.922Z,50.73
2022-08-25T12:11:42.895Z,52.90
2022-08-25T12:12:42.879Z,55.38
2022-08-25T12:13:42.874Z,52.03
2022-08-25T12:14:42.895Z,52.33
2022-08-25T12:15:42.878Z,53.75
2022-08-25T12:16:43.622Z,53.32
2022-08-25T12:17:42.849Z,59.61
2022-08-25T12:18:46.053Z,53.23
2022-08-25T12:19:42.868Z,53.70
2022-08-25T12:20:42.852Z,52.95
2022-08-25T12:21:42.825Z,58.80
2022-08-25T12:22:42.816Z,54.34
2022-08-25T12:23:45.167Z,50.28
2022-08-25T12:24:48.081Z,55.81
2022-08-25T12:25:43.790Z,56.71
2022-08-25T12:26:42.797Z,53.12
2022-08-25T12:27:42.776Z,51.69
2022-08-25T12:28:42.779Z,51.15
2022-08-25T12:29:42.798Z,52.89
2022-08-25T12:30:42.792Z,52.23
2022-08-25T12:31:42.777Z,46.22
2022-08-25T12:32:42.769Z,55.47
2022-08-25T12:33:42.737Z,54.51
2022-08-25T12:34:42.762Z,55.06
2022-08-25T12:35:42.729Z,57.57
2022-08-25T12:36:42.710Z,54.98
2022-08-25T12:37:42.704Z,56.38
2022-08-25T12:38:44.194Z,57.61
2022-08-25T12:39:43.724Z,55.11
2022-08-25T12:40:42.692Z,54.24
2022-08-25T12:41:42.685Z,47.38
2022-08-25T12:42:42.668Z,54.46
2022-08-25T12:43:42.666Z,58.73
2022-08-25T12:44:42.698Z,55.72
2022-08-25T12:45:42.727Z,55.65
2022-08-25T12:46:42.652Z,52.32
2022-08-25T12:47:44.703Z,56.20
2022-08-25T12:48:43.644Z,55.72
2022-08-25T12:49:42.678Z,56.29
2022-08-25T12:50:43.207Z,55.41
2022-08-25T12:51:42.605Z,57.24
2022-08-25T12:52:43.605Z,55.98